createdAt,value
2022-12-08T00:02:35.361Z,66
2022-12-08T00:06:17.643Z,73
2022-12-08T00:09:22.975Z,62
2022-12-08T00:12:28.263Z,56
2022-12-08T00:15:33.576Z,63
2022-12-08T00:18:38.891Z,62
2022-12-08T00:22:21.226Z,65
2022-12-08T00:25:26.561Z,63
2022-12-08T00:28:31.870Z,65
2022-12-08T00:33:28.362Z,61
2022-12-08T00:38:24.862Z,57
2022-12-08T00:41:30.190Z,53
2022-12-08T00:44:35.451Z,60
2022-12-08T00:48:17.848Z,54
2022-12-08T00:51:23.197Z,57
2022-12-08T00:54:28.444Z,56
2022-12-08T00:57:33.776Z,48
2022-12-08T01:00:30.877Z,58
2022-12-08T01:03:36.261Z,52
2022-12-08T01:07:18.558Z,54
2022-12-08T01:10:23.886Z,49
2022-12-08T01:13:29.185Z,49
2022-12-08T01:16:34.545Z,50
2022-12-08T01:20:16.895Z,49
2022-12-08T01:23:22.173Z,53
2022-12-08T01:26:27.494Z,54
2022-12-08T01:29:32.800Z,49
2022-12-08T01:32:38.117Z,52
2022-12-08T01:36:20.446Z,48
2022-12-08T01:39:25.760Z,47
2022-12-08T01:42:31.068Z,45
2022-12-08T01:45:36.392Z,51
2022-12-08T01:49:18.780Z,46
2022-12-08T01:52:24.057Z,48
2022-12-08T01:55:29.405Z,48
2022-12-08T01:58:34.690Z,45
2022-12-08T02:01:31.936Z,52
2022-12-08T02:04:37.140Z,51
2022-12-08T02:08:19.556Z,47
2022-12-08T02:11:24.787Z,48
2022-12-08T02:14:30.104Z,46
2022-12-08T02:17:35.432Z,45
2022-12-08T02:21:17.796Z,46
2022-12-08T02:24:23.100Z,48
2022-12-08T02:26:51.331Z,48
2022-12-08T02:29:19.625Z,43
2022-12-08T02:32:24.887Z,45
2022-12-08T02:35:30.216Z,46
2022-12-08T02:38:35.569Z,48
2022-12-08T02:42:17.882Z,46
2022-12-08T02:45:23.210Z,48
2022-12-08T02:48:28.517Z,44
2022-12-08T02:51:33.834Z,46
2022-12-08T02:54:39.169Z,42
2022-12-08T02:58:21.510Z,45
2022-12-08T03:01:26.861Z,46
2022-12-08T03:04:32.123Z,38
2022-12-08T03:07:37.466Z,40
2022-12-08T03:11:11.623Z,46
2022-12-08T03:14:16.957Z,35
2022-12-08T03:17:22.244Z,39
2022-12-08T03:20:27.529Z,42
2022-12-08T03:23:32.847Z,43
2022-12-08T03:26:38.171Z,38
2022-12-08T03:30:20.520Z,39
2022-12-08T03:33:25.809Z,41
2022-12-08T03:36:31.148Z,42
2022-12-08T03:39:36.486Z,41
2022-12-08T03:43:18.855Z,45
2022-12-08T03:49:29.472Z,38
2022-12-08T03:52:34.783Z,41
2022-12-08T03:56:17.139Z,48
2022-12-08T03:59:22.442Z,37
2022-12-08T04:02:27.798Z,42
2022-12-08T04:05:33.065Z,37
2022-12-08T04:08:38.385Z,36
2022-12-08T04:13:30.781Z,32
2022-12-08T04:16:36.107Z,37
2022-12-08T04:20:18.442Z,39
2022-12-08T04:23:23.765Z,37
2022-12-08T04:26:29.078Z,42
2022-12-08T04:29:34.430Z,42
2022-12-08T04:32:42.908Z,38
2022-12-08T04:36:22.053Z,42
2022-12-08T04:39:27.363Z,43
2022-12-08T04:42:32.651Z,44
2022-12-08T04:45:37.994Z,42
2022-12-08T04:49:20.336Z,44
2022-12-08T04:52:25.653Z,45
2022-12-08T04:55:30.955Z,39
2022-12-08T04:58:36.243Z,49
2022-12-08T05:03:33.080Z,40
2022-12-08T05:06:38.117Z,47
2022-12-08T05:10:20.449Z,40
2022-12-08T05:13:17.563Z,43
2022-12-08T05:16:22.901Z,39
2022-12-08T05:19:28.213Z,38
2022-12-08T05:22:33.535Z,46
2022-12-08T05:25:38.799Z,38
2022-12-08T05:29:21.215Z,46
2022-12-08T05:32:26.527Z,39
2022-12-08T05:35:31.791Z,44
2022-12-08T05:38:37.128Z,48
2022-12-08T05:42:24.525Z,46
2022-12-08T05:45:24.818Z,51
2022-12-08T05:48:30.132Z,49
2022-12-08T05:51:35.388Z,47
2022-12-08T05:55:17.774Z,46
2022-12-08T05:58:23.276Z,49
2022-12-08T06:01:28.407Z,48
2022-12-08T06:04:33.743Z,57
2022-12-08T06:07:39.095Z,54
2022-12-08T06:11:21.379Z,49
2022-12-08T06:14:18.524Z,51
2022-12-08T06:17:23.795Z,52
2022-12-08T06:20:29.098Z,49
2022-12-08T06:23:34.457Z,52
2022-12-08T06:27:16.772Z,51
2022-12-08T06:30:22.080Z,46
2022-12-08T06:33:27.421Z,50
2022-12-08T06:36:32.727Z,53
2022-12-08T06:39:38.039Z,54
2022-12-08T06:43:20.374Z,55
2022-12-08T06:46:25.790Z,51
2022-12-08T06:49:30.997Z,54
2022-12-08T06:52:40.983Z,56
2022-12-08T06:57:32.958Z,56
2022-12-08T07:00:38.144Z,56
2022-12-08T07:04:20.511Z,53
2022-12-08T07:07:25.831Z,56
2022-12-08T07:10:31.129Z,53
2022-12-08T07:12:59.379Z,59
2022-12-08T07:15:19.416Z,54
2022-12-08T07:18:24.713Z,55
2022-12-08T07:21:30.028Z,47
2022-12-08T07:24:35.355Z,53
2022-12-08T07:28:17.704Z,49
2022-12-08T07:31:23.088Z,54
2022-12-08T07:34:28.362Z,53
2022-12-08T07:37:33.658Z,56
2022-12-08T07:41:16.023Z,58
2022-12-08T07:44:21.315Z,69
2022-12-08T07:47:26.637Z,63
2022-12-08T07:50:31.974Z,57
2022-12-08T07:53:37.248Z,57
2022-12-08T07:57:19.591Z,55
2022-12-08T08:00:25.098Z,66
2022-12-08T08:03:30.219Z,63
2022-12-08T08:06:35.557Z,59
2022-12-08T08:10:17.944Z,62
2022-12-08T08:13:23.243Z,67
2022-12-08T08:16:20.474Z,60
2022-12-08T08:19:25.691Z,68
2022-12-08T08:22:30.969Z,83
2022-12-08T08:27:27.471Z,82
2022-12-08T08:30:32.787Z,76
2022-12-08T08:33:38.082Z,76
2022-12-08T08:37:20.499Z,65
2022-12-08T08:40:25.768Z,69
2022-12-08T08:43:36.193Z,76
2022-12-08T08:46:36.422Z,74
2022-12-08T08:50:18.727Z,64
2022-12-08T08:53:24.057Z,72
2022-12-08T08:56:29.345Z,69
2022-12-08T08:59:34.700Z,86
2022-12-08T09:03:17.048Z,80
2022-12-08T09:06:22.406Z,75
2022-12-08T09:09:27.690Z,82
2022-12-08T09:12:32.985Z,71
2022-12-08T09:15:30.105Z,76
2022-12-08T09:18:35.378Z,78
2022-12-08T09:22:17.769Z,79
2022-12-08T09:25:23.096Z,82
2022-12-08T09:28:28.407Z,80
2022-12-08T09:31:33.755Z,75
2022-12-08T09:34:38.996Z,78
2022-12-08T09:38:21.353Z,78
2022-12-08T09:41:30.780Z,82
2022-12-08T09:44:31.995Z,77
2022-12-08T09:47:37.305Z,73
2022-12-08T09:51:19.669Z,74
2022-12-08T09:54:24.961Z,69
2022-12-08T09:57:30.280Z,71
2022-12-08T10:00:35.611Z,74
2022-12-08T10:04:17.998Z,71
2022-12-08T10:07:23.266Z,70
2022-12-08T10:10:28.578Z,70
2022-12-08T10:15:16.988Z,74
2022-12-08T10:18:22.214Z,68
2022-12-08T10:21:27.525Z,64
2022-12-08T10:24:32.810Z,56
2022-12-08T10:27:38.159Z,62
2022-12-08T10:31:20.596Z,60
2022-12-08T10:34:25.823Z,63
2022-12-08T10:37:31.109Z,61
2022-12-08T10:40:40.675Z,66
2022-12-08T10:44:18.805Z,67
2022-12-08T10:47:24.105Z,63
2022-12-08T10:50:29.433Z,62
2022-12-08T10:53:34.741Z,58
2022-12-08T10:57:17.113Z,53
2022-12-08T11:00:22.449Z,54
2022-12-08T11:03:27.750Z,53
2022-12-08T11:06:33.026Z,54
2022-12-08T11:09:38.314Z,54
2022-12-08T11:13:20.695Z,48
2022-12-08T11:16:17.859Z,46
2022-12-08T11:19:23.109Z,46
2022-12-08T11:22:28.431Z,44
2022-12-08T11:25:33.774Z,42
2022-12-08T11:28:39.025Z,40
2022-12-08T11:32:21.478Z,39
2022-12-08T11:35:26.776Z,42
2022-12-08T11:38:32.053Z,43
2022-12-08T11:41:37.410Z,46
2022-12-08T11:45:19.733Z,45
2022-12-08T11:48:25.038Z,43
2022-12-08T11:51:30.343Z,45
2022-12-08T11:54:35.640Z,44
2022-12-08T11:58:18.073Z,44
2022-12-08T12:01:23.373Z,46
2022-12-08T12:04:28.662Z,50
2022-12-08T12:07:34.036Z,43
2022-12-08T12:10:39.251Z,51
2022-12-08T12:14:21.622Z,50
2022-12-08T12:17:18.770Z,48
2022-12-08T12:20:24.030Z,54
2022-12-08T12:23:29.377Z,44
2022-12-08T12:26:34.701Z,46
2022-12-08T12:29:39.956Z,47
2022-12-08T12:33:22.369Z,43
2022-12-08T12:36:27.685Z,41
2022-12-08T12:39:32.963Z,50
2022-12-08T12:42:38.289Z,39
2022-12-08T12:46:20.764Z,38
2022-12-08T12:49:25.998Z,45
2022-12-08T12:52:31.266Z,36
2022-12-08T12:55:36.587Z,46
2022-12-08T12:59:18.953Z,42
2022-12-08T13:02:24.329Z,41
2022-12-08T13:05:29.595Z,48
2022-12-08T13:08:34.888Z,47
2022-12-08T13:12:17.249Z,42
2022-12-08T13:15:14.341Z,51
2022-12-08T13:18:19.703Z,46
2022-12-08T13:21:24.995Z,48
2022-12-08T13:24:30.301Z,47
2022-12-08T13:27:35.608Z,45
2022-12-08T13:31:17.998Z,42
2022-12-08T13:34:23.277Z,47
2022-12-08T13:37:28.596Z,48
2022-12-08T13:40:33.955Z,54
2022-12-08T13:43:51.233Z,54
2022-12-08T13:47:33.225Z,53
2022-12-08T13:54:33.421Z,45
2022-12-08T13:57:01.435Z,40
2022-12-08T14:00:19.959Z,32
2022-12-08T14:03:25.235Z,45
2022-12-08T14:06:30.481Z,40
2022-12-08T14:09:35.827Z,42
2022-12-08T14:13:18.180Z,41
2022-12-08T14:17:29.419Z,37
2022-12-08T14:20:46.770Z,33
2022-12-08T14:23:40.039Z,39
2022-12-08T14:27:22.407Z,48
2022-12-08T14:30:27.732Z,47
2022-12-08T14:33:33.025Z,44
2022-12-08T14:36:38.335Z,44
2022-12-08T14:40:22.837Z,51
2022-12-08T14:43:26.028Z,50
2022-12-08T14:46:31.401Z,47
2022-12-08T14:49:36.674Z,51
2022-12-08T14:53:18.997Z,50
2022-12-08T14:56:24.319Z,50
2022-12-08T14:59:29.639Z,53
2022-12-08T15:02:34.937Z,50
2022-12-08T15:06:17.292Z,52
2022-12-08T15:10:36.758Z,54
2022-12-08T15:14:19.119Z,55
2022-12-08T15:18:30.377Z,51
2022-12-08T15:21:35.689Z,55
2022-12-08T15:25:18.031Z,56
2022-12-08T15:28:28.064Z,53
2022-12-08T15:31:28.707Z,52
2022-12-08T15:34:33.937Z,55
2022-12-08T15:38:16.309Z,60
2022-12-08T15:41:21.639Z,55
2022-12-08T15:44:26.962Z,66
2022-12-08T15:47:32.261Z,63
2022-12-08T15:50:37.573Z,67
2022-12-08T15:54:19.931Z,65
2022-12-08T15:57:53.353Z,62
2022-12-08T16:00:52.155Z,58
2022-12-08T16:04:20.194Z,65
2022-12-08T16:07:22.247Z,60
2022-12-08T16:10:23.623Z,63
2022-12-08T16:13:55.968Z,71
2022-12-08T16:18:17.159Z,74
2022-12-08T16:21:51.986Z,80
2022-12-08T16:24:27.793Z,72
2022-12-08T16:27:59.837Z,82
2022-12-08T16:30:38.422Z,79
2022-12-08T16:34:20.757Z,83
2022-12-08T16:37:26.113Z,86
2022-12-08T16:40:31.464Z,81
2022-12-08T16:43:36.731Z,84
2022-12-08T16:47:19.117Z,89
2022-12-08T16:50:24.404Z,79
2022-12-08T16:53:29.695Z,81
2022-12-08T16:56:35.033Z,87
2022-12-08T17:00:17.449Z,75
2022-12-08T17:03:22.687Z,84
2022-12-08T17:06:28.005Z,85
2022-12-08T17:09:33.304Z,79
2022-12-08T17:12:38.607Z,82
2022-12-08T17:16:21.021Z,83
2022-12-08T17:19:18.083Z,85
2022-12-08T17:22:23.418Z,79
2022-12-08T17:25:28.722Z,80
2022-12-08T17:28:58.669Z,85
2022-12-08T17:31:39.396Z,72
2022-12-08T17:35:21.700Z,74
2022-12-08T17:38:26.997Z,77
2022-12-08T17:41:32.397Z,75
2022-12-08T17:44:37.643Z,70
2022-12-08T17:48:20.004Z,70
2022-12-08T17:51:25.350Z,69
2022-12-08T17:54:30.620Z,77
2022-12-08T17:57:35.947Z,81
2022-12-08T18:02:32.475Z,77
2022-12-08T18:05:37.762Z,75
2022-12-08T18:09:21.181Z,80
2022-12-08T18:12:25.424Z,88
2022-12-08T18:15:33.579Z,88
2022-12-08T18:18:27.869Z,107
2022-12-08T18:21:33.179Z,85
2022-12-08T18:24:38.459Z,88
2022-12-08T18:28:20.818Z,95
2022-12-08T18:31:26.217Z,86
2022-12-08T18:34:31.460Z,82
2022-12-08T18:37:36.769Z,83
2022-12-08T18:41:19.135Z,90
2022-12-08T18:44:24.447Z,71
2022-12-08T18:47:29.757Z,80
2022-12-08T18:50:35.072Z,71
2022-12-08T18:54:17.416Z,66
2022-12-08T18:57:22.736Z,73
2022-12-08T19:00:28.152Z,73
2022-12-08T19:03:33.374Z,80
2022-12-08T19:06:38.667Z,66
2022-12-08T19:10:21.013Z,64
2022-12-08T19:13:26.368Z,71
2022-12-08T19:16:31.741Z,73
2022-12-08T19:19:28.760Z,74
2022-12-08T19:22:34.091Z,65
2022-12-08T19:25:39.403Z,63
2022-12-08T19:29:21.772Z,59
2022-12-08T19:32:27.053Z,56
2022-12-08T19:35:32.390Z,52
2022-12-08T19:38:37.709Z,52
2022-12-08T19:42:20.056Z,53
2022-12-08T19:45:25.461Z,55
2022-12-08T19:48:30.686Z,51
2022-12-08T19:51:35.990Z,56
2022-12-08T19:55:18.358Z,54
2022-12-08T19:58:23.681Z,54
2022-12-08T20:01:28.982Z,55
2022-12-08T20:04:34.334Z,53
2022-12-08T20:07:39.652Z,58
2022-12-08T20:11:21.980Z,49
2022-12-08T20:14:27.326Z,51
2022-12-08T20:17:32.595Z,75
2022-12-08T20:20:29.721Z,70
2022-12-08T20:23:35.001Z,72
2022-12-08T20:27:17.400Z,65
2022-12-08T20:30:22.716Z,63
2022-12-08T20:33:28.047Z,62
2022-12-08T20:36:33.342Z,55
2022-12-08T20:39:38.652Z,61
2022-12-08T20:43:20.979Z,57
2022-12-08T20:46:26.355Z,57
2022-12-08T20:49:34.666Z,53
2022-12-08T20:52:36.952Z,54
2022-12-08T20:56:19.424Z,53
2022-12-08T20:59:24.682Z,58
2022-12-08T21:02:30.184Z,59
2022-12-08T21:05:35.565Z,56
2022-12-08T21:09:17.749Z,53
2022-12-08T21:12:23.094Z,57
2022-12-08T21:15:28.263Z,64
2022-12-08T21:20:16.633Z,70
2022-12-08T21:23:22.024Z,88
2022-12-08T21:26:27.398Z,90
2022-12-08T21:29:32.472Z,101
2022-12-08T21:34:29.020Z,93
2022-12-08T21:37:34.411Z,96
2022-12-08T21:40:39.639Z,97
2022-12-08T21:44:21.926Z,102
2022-12-08T21:47:27.509Z,92
2022-12-08T21:50:32.728Z,99
2022-12-08T21:53:38.022Z,100
2022-12-08T21:57:20.298Z,94
2022-12-08T22:00:25.665Z,98
2022-12-08T22:03:30.980Z,86
2022-12-08T22:06:36.297Z,89
2022-12-08T22:10:18.764Z,98
2022-12-08T22:13:23.942Z,96
2022-12-08T22:16:29.432Z,101
2022-12-08T22:19:26.459Z,100
2022-12-08T22:22:31.745Z,101
2022-12-08T22:25:36.887Z,95
2022-12-08T22:29:19.241Z,94
2022-12-08T22:32:24.591Z,94
2022-12-08T22:35:29.881Z,107
2022-12-08T22:38:35.181Z,102
2022-12-08T22:42:17.637Z,96
2022-12-08T22:45:22.891Z,100
2022-12-08T22:48:28.160Z,100
2022-12-08T22:51:33.694Z,93
2022-12-08T22:54:38.737Z,97
2022-12-08T22:58:21.277Z,98
2022-12-08T23:01:26.628Z,105
2022-12-08T23:04:32.049Z,96
2022-12-08T23:07:37.105Z,105
2022-12-08T23:11:19.519Z,99
2022-12-08T23:14:24.800Z,95
2022-12-08T23:17:30.170Z,105
2022-12-08T23:20:35.630Z,98
2022-12-08T23:24:17.722Z,96
2022-12-08T23:27:23.327Z,98
2022-12-08T23:29:51.354Z,102
2022-12-08T23:34:39.912Z,97
2022-12-08T23:38:22.018Z,91
2022-12-08T23:41:27.286Z,86
2022-12-08T23:44:32.610Z,94
2022-12-08T23:47:37.946Z,94
2022-12-08T23:50:06.487Z,74
2022-12-08T23:52:34.543Z,64
2022-12-08T23:56:16.844Z,64
2022-12-08T23:59:22.124Z,98
